Jump to content

  •  

SOUTHWEST AIRLINES FLIGHT WN336 FLOWN ON 07-28-2017 BY CAPTAIN TYLER HANUS

Pilot StatsCaptain Tyler Hanus (LDP525) • 262.7 total hours • 63 total flights [View Logbook]
FLIGHT DETAILS
StatusReceived and approved on 2017-07-28 at 16:07:38
Origin AirportOrlando Intl (KMCO) • Orlando, Florida, United States (96 feet MSL)
Filed Flight PlanKMCO ORL J20 SZW J2 CEW J50 ABI J66 EWM J4 SSO J50 GBN J18 JUDTH J2 GWIRE KSAN
Destination AirportSan Diego Intl (KSAN) • San Diego, California, United States (15 feet MSL)
Alternate AirportNorth Island NAS (KNZY) • San Diego, California, United States (26 feet MSL)
AirlineSouthwest Airlines
AircraftBoeing 737-700 | Winglets (73W / B737-700)
FS Aircraft UsedBoeing 737-7H4NG Southwest Airlines N708SW Goldstar Textures
Cruising AltitudeFL380
Distance Flown1,864 nautical miles
Passengers Onboard68 passengers (50.00% full)
DEPARTURE DETAILS
Time Out11:38:11
Taxi Data134,401 lbs total with 34,248 lbs of fuel onboard
Takeoff Data11:51:05 (13 minutes after leaving gate/ramp) • 133,801 lbs total • 9° pitch at 148 knots
Departure METARKMCO 281353Z 20005KT 10SM FEW024 FEW300 29/24 A2997 RMK AO2 SLP149 T02940239 $
ARRIVAL DETAILS
Landing Data12:56:33 • 112,578 lbs total • 7° pitch doing 105 knots at a rate of -235.30 feet/minute with 12,244 lbs of fuel onboard
Time In13:01:03 (5 minutes after landing)
Ramp Weight112,397 lbs total
Total Fuel Used22,004 lbs
Total Block Time04:15:09 (4.3 hours) while 17 minutes were spent on the ground
Arrival METARKSAN 281951Z 23009KT 10SM SCT015 BKN018 24/18 A2997 RMK AO2 SLP147 T02440178
MISCELLANEOUS DETAILS
LiveDISPATCH Version4.8.3.1
FS Version
FSUIPC Version4.96
OS VersionWindows 7 32-bit
Screen Resolution1360 x 768
Pilot's CommentsNo Comments Reported
FLIGHT MAP